createdAt,value
2022-12-23T14:36:15.613Z,49.67
2022-12-23T14:39:30.364Z,49.92
2022-12-23T14:42:05.438Z,48.70
2022-12-23T14:44:49.255Z,47.50
2022-12-23T14:47:34.577Z,48.40
2022-12-23T14:50:37.688Z,44.67
2022-12-23T14:53:22.453Z,43.10
2022-12-23T14:55:53.705Z,42.60
2022-12-23T14:58:58.107Z,42.30
2022-12-23T15:01:33.492Z,42.58
2022-12-23T15:04:09.720Z,43.50
2022-12-23T15:06:40.722Z,44.25
2022-12-23T15:09:22.602Z,43.58
2022-12-23T15:11:51.195Z,44.38
2022-12-23T15:14:26.607Z,42.65
2022-12-23T15:16:56.255Z,42.97
2022-12-23T15:19:27.172Z,41.60
2022-12-23T15:22:17.228Z,41.42
2022-12-23T15:24:53.473Z,44.13
2022-12-23T15:27:28.326Z,44.37
2022-12-23T15:29:57.684Z,49.63
2022-12-23T15:32:27.538Z,57.45
2022-12-23T15:35:02.101Z,52.03
2022-12-23T15:37:32.574Z,47.10
2022-12-23T15:40:13.079Z,46.83
2022-12-23T15:42:49.076Z,47.40
2022-12-23T15:45:35.585Z,47.63
2022-12-23T15:48:05.360Z,50.60
2022-12-23T15:50:40.493Z,52.13
2022-12-23T15:53:12.340Z,50.08
2022-12-23T15:55:43.381Z,43.35
2022-12-23T15:58:19.674Z,42.23
2022-12-23T16:00:54.289Z,42.22
2022-12-23T16:03:29.302Z,43.97
2022-12-23T16:06:11.357Z,44.50
2022-12-23T16:08:40.205Z,43.03
2022-12-23T16:11:15.956Z,43.83
2022-12-23T16:13:58.690Z,44.08
2022-12-23T16:16:39.210Z,40.83
2022-12-23T16:19:28.632Z,42.15
2022-12-23T16:21:57.418Z,44.60
2022-12-23T16:24:26.219Z,40.33
2022-12-23T16:26:57.761Z,40.22
2022-12-23T16:29:28.186Z,38.53
2022-12-23T16:32:01.636Z,39.05
2022-12-23T16:34:32.653Z,38.15
2022-12-23T16:37:02.517Z,38.15
2022-12-23T16:39:30.930Z,36.70
2022-12-23T16:42:00.801Z,36.88
2022-12-23T16:44:29.501Z,36.75
2022-12-23T16:47:04.225Z,38.47
2022-12-23T16:49:34.331Z,36.28
2022-12-23T16:52:04.484Z,39.85
2022-12-23T16:54:34.719Z,39.55
2022-12-23T16:57:07.530Z,39.63
2022-12-23T16:59:41.455Z,40.97
2022-12-23T17:02:20.576Z,39.47
2022-12-23T17:04:48.978Z,41.53
2022-12-23T17:07:17.355Z,44.20
2022-12-23T17:09:46.297Z,43.22
2022-12-23T17:12:16.098Z,41.10
2022-12-23T17:14:44.454Z,46.75
2022-12-23T17:17:15.800Z,42.78
2022-12-23T17:19:44.221Z,51.83
2022-12-23T17:22:14.322Z,46.85
2022-12-23T17:24:42.605Z,53.72
2022-12-23T17:27:20.063Z,51.13
2022-12-23T17:29:51.097Z,45.33
2022-12-23T17:32:21.265Z,45.42
2022-12-23T17:34:49.801Z,41.47
2022-12-23T17:37:20.435Z,53.55
2022-12-23T17:39:50.584Z,39.25
2022-12-23T17:42:25.744Z,39.70
2022-12-23T17:44:54.627Z,43.28
2022-12-23T17:47:24.299Z,38.70
2022-12-23T17:49:53.046Z,38.83
2022-12-23T17:52:23.644Z,37.10
2022-12-23T17:54:53.300Z,38.92
2022-12-23T17:57:26.603Z,39.15
2022-12-23T17:59:58.053Z,38.42
2022-12-23T18:02:30.912Z,36.22
2022-12-23T18:04:59.617Z,36.30
2022-12-23T18:07:30.242Z,41.35
2022-12-23T18:10:02.447Z,36.70
2022-12-23T18:12:37.428Z,35.58
2022-12-23T18:15:07.647Z,68.47
2022-12-23T18:17:36.892Z,42.97
2022-12-23T18:20:08.658Z,44.75
2022-12-23T18:22:37.437Z,39.53
2022-12-23T18:25:06.610Z,39.45
2022-12-23T18:27:36.813Z,38.85
2022-12-23T18:30:08.836Z,31.92
2022-12-23T18:32:37.403Z,32.20
2022-12-23T18:35:33.071Z,39.05
2022-12-23T18:38:02.853Z,37.05
2022-12-23T18:40:33.168Z,38.42
2022-12-23T18:43:03.401Z,38.35
2022-12-23T18:45:35.914Z,32.42
2022-12-23T18:48:07.623Z,32.30
2022-12-23T18:50:38.698Z,32.78
2022-12-23T18:53:08.413Z,34.05
2022-12-23T18:55:37.850Z,36.10
2022-12-23T18:58:14.821Z,32.85
2022-12-23T19:00:44.110Z,35.67
2022-12-23T19:03:23.127Z,33.15
2022-12-23T19:05:52.441Z,35.13
2022-12-23T19:08:26.804Z,30.33
2022-12-23T19:10:56.958Z,31.08
2022-12-23T19:13:26.639Z,29.23
2022-12-23T19:15:55.259Z,31.40
2022-12-23T19:18:25.304Z,28.65
2022-12-23T19:20:53.946Z,31.67
2022-12-23T19:23:22.980Z,30.50
2022-12-23T19:25:55.264Z,29.23
2022-12-23T19:28:24.146Z,34.28
2022-12-23T19:30:54.425Z,35.42
2022-12-23T19:33:22.869Z,34.13
2022-12-23T19:35:54.147Z,36.45
2022-12-23T19:38:22.598Z,32.55
2022-12-23T19:40:59.735Z,33.88
2022-12-23T19:43:28.248Z,33.97
2022-12-23T19:46:02.055Z,35.17
2022-12-23T19:48:31.896Z,34.88
2022-12-23T19:51:01.511Z,39.72
2022-12-23T19:53:30.430Z,44.60
2022-12-23T19:56:00.162Z,44.03
2022-12-23T19:58:32.977Z,48.75
2022-12-23T20:03:51.010Z,43.95
2022-12-23T20:06:21.518Z,46.92
2022-12-23T20:08:54.932Z,39.63
2022-12-23T20:11:31.016Z,48.22
2022-12-23T20:14:01.980Z,40.67
2022-12-23T20:16:30.695Z,38.72
2022-12-23T20:19:01.051Z,41.60
2022-12-23T20:21:29.377Z,35.60
2022-12-23T20:23:58.257Z,41.95
2022-12-23T20:26:28.182Z,39.28
2022-12-23T20:28:57.731Z,40.00
2022-12-23T20:31:27.544Z,33.40
2022-12-23T20:33:57.516Z,38.13
2022-12-23T20:36:30.025Z,31.42
2022-12-23T20:39:03.673Z,32.75
2022-12-23T20:41:38.356Z,32.20
2022-12-23T20:46:56.757Z,30.35
2022-12-23T20:49:26.979Z,30.15
2022-12-23T20:51:57.244Z,28.73
2022-12-23T20:54:32.194Z,29.15
2022-12-23T20:57:03.532Z,31.45
2022-12-23T20:59:33.113Z,31.75
2022-12-23T21:02:02.303Z,34.92
2022-12-23T21:04:31.064Z,36.30
2022-12-23T21:07:00.661Z,35.47
2022-12-23T21:09:29.312Z,35.95
2022-12-23T21:11:58.564Z,34.17
2022-12-23T21:14:27.517Z,33.72
2022-12-23T21:16:56.087Z,34.30
2022-12-23T21:19:26.982Z,34.42
2022-12-23T21:21:55.472Z,35.70
2022-12-23T21:24:25.729Z,35.78
2022-12-23T21:26:57.018Z,35.15
2022-12-23T21:29:26.366Z,35.67
2022-12-23T21:31:55.664Z,33.97
2022-12-23T21:34:24.342Z,32.72
2022-12-23T21:36:53.349Z,33.22
2022-12-23T21:39:24.718Z,32.70
2022-12-23T21:41:55.785Z,31.27
2022-12-23T21:44:24.788Z,31.52
2022-12-23T21:46:56.860Z,31.30
2022-12-23T21:49:25.446Z,31.25
2022-12-23T21:51:54.601Z,30.85
2022-12-23T21:54:23.528Z,31.38
2022-12-23T21:56:51.724Z,30.92
2022-12-23T21:59:34.962Z,30.48
2022-12-23T22:02:05.499Z,30.95
2022-12-23T22:04:34.366Z,30.90
2022-12-23T22:07:02.822Z,30.05
2022-12-23T22:09:32.922Z,29.42
2022-12-23T22:12:01.665Z,29.83
2022-12-23T22:14:31.602Z,30.55
2022-12-23T22:17:00.350Z,30.70
2022-12-23T22:19:28.837Z,30.15
2022-12-23T22:21:57.024Z,28.83
2022-12-23T22:24:25.558Z,30.83
2022-12-23T22:26:54.330Z,31.42
2022-12-23T22:29:23.402Z,32.65
2022-12-23T22:31:54.939Z,32.95
2022-12-23T22:34:24.706Z,35.50
2022-12-23T22:36:54.275Z,34.72
2022-12-23T22:39:23.554Z,35.88
2022-12-23T22:41:54.045Z,36.45
2022-12-23T22:44:22.748Z,38.05
2022-12-23T22:47:01.426Z,37.15
2022-12-23T22:49:30.327Z,35.10
2022-12-23T22:51:59.121Z,36.88
2022-12-23T22:54:27.741Z,35.30
2022-12-23T22:56:56.357Z,34.53
2022-12-23T22:59:28.858Z,33.30
2022-12-23T23:02:00.851Z,32.00
2022-12-23T23:04:30.842Z,31.65
2022-12-23T23:06:59.150Z,32.08
2022-12-23T23:09:29.232Z,30.45
2022-12-23T23:11:58.645Z,32.42
2022-12-23T23:14:27.902Z,31.63
2022-12-23T23:17:02.589Z,33.25
2022-12-23T23:19:34.095Z,33.58
2022-12-23T23:22:02.684Z,35.08
2022-12-23T23:24:32.029Z,34.40
2022-12-23T23:27:00.923Z,35.90
2022-12-23T23:29:30.744Z,37.05
2022-12-23T23:32:02.892Z,39.58
2022-12-23T23:34:32.127Z,44.28
2022-12-23T23:37:01.291Z,42.75
2022-12-23T23:39:30.007Z,41.13
2022-12-23T23:41:59.129Z,42.25
2022-12-23T23:44:30.473Z,43.00
2022-12-23T23:46:59.331Z,42.55
2022-12-23T23:49:29.341Z,41.10
2022-12-23T23:52:04.772Z,41.50
2022-12-23T23:54:33.282Z,41.35
2022-12-23T23:57:01.699Z,44.22
2022-12-23T23:59:33.012Z,42.90
